.
WxDataArchive / Data Records for 2008-11-12
2008-11-11 November 2008 2008-11-13

Data Records for Wednesday, 12 November 2008

Time	Temp	Chill	HIndex	Humid	Dewpt	 Wind 	HiWind	WindDir	Rain 	Barom 
-----	----	-----	------	-----	-----	------	------	-------	-----	----- 
00:00	36.8	36.8	36.8	83	32.1	1	3	112	0.00	30.200 
00:05	36.8	36.8	36.8	83	32.1	2	5	90	0.00	30.198 
00:10	36.6	36.6	36.6	83	31.9	1	4	90	0.00	30.194 
00:15	36.6	36.6	36.6	83	31.9	2	4	90	0.00	30.190 
00:20	36.6	36.6	36.6	83	31.9	1	4	112	0.00	30.187 
00:25	36.6	36.6	36.6	84	32.2	1	5	112	0.00	30.187 
00:30	36.8	36.8	36.8	84	32.4	1	5	112	0.00	30.194 
00:35	36.8	36.8	36.8	84	32.4	0	3	112	0.00	30.199 
00:40	36.8	36.8	36.8	84	32.4	0	2	112	0.00	30.200 
00:45	36.8	36.8	36.8	84	32.4	0	2	112	0.00	30.199 
00:50	36.8	36.8	36.8	84	32.4	0	1	112	0.00	30.200 
00:55	36.8	36.8	36.8	84	32.4	0	2	112	0.00	30.198 
01:00	36.9	36.9	36.9	83	32.2	1	3	112	0.00	30.193 
01:05	36.9	36.9	36.9	83	32.2	1	3	112	0.00	30.186 
01:10	37.0	37.0	37.0	83	32.3	2	5	90	0.00	30.184 
01:15	37.0	37.0	37.0	83	32.3	2	5	90	0.00	30.184 
01:20	37.2	37.2	37.2	82	32.2	1	3	90	0.00	30.184 
01:25	37.2	37.2	37.2	83	32.5	2	4	90	0.00	30.181 
01:30	37.2	37.2	37.2	82	32.2	1	4	112	0.00	30.175 
01:35	37.2	37.2	37.2	82	32.2	2	4	112	0.00	30.171 
01:40	37.2	37.2	37.2	82	32.2	1	5	112	0.00	30.170 
01:45	37.2	37.2	37.2	82	32.2	1	4	112	0.00	30.170 
01:50	37.2	37.2	37.2	82	32.2	2	5	90	0.00	30.169 
01:55	37.0	37.0	37.0	82	32.0	2	4	90	0.00	30.168 
02:00	37.0	37.0	37.0	83	32.3	2	5	90	0.00	30.168 
02:05	36.9	36.9	36.9	83	32.2	1	4	112	0.00	30.169 
02:10	36.9	36.9	36.9	83	32.2	1	4	90	0.00	30.168 
02:15	36.9	36.9	36.9	83	32.2	1	4	90	0.00	30.168 
02:20	36.9	36.9	36.9	83	32.2	1	5	90	0.00	30.166 
02:25	36.9	36.9	36.9	83	32.2	1	3	68	0.00	30.166 
02:30	36.9	36.9	36.9	83	32.2	2	5	90	0.00	30.166 
02:35	36.9	36.9	36.9	83	32.2	1	4	112	0.00	30.168 
02:40	37.0	37.0	37.0	83	32.3	2	6	90	0.00	30.166 
02:45	37.0	37.0	37.0	83	32.3	2	5	90	0.00	30.163 
02:50	37.0	37.0	37.0	83	32.3	2	5	112	0.00	30.164 
02:55	37.0	37.0	37.0	82	32.0	2	7	112	0.00	30.162 
03:00	37.0	37.0	37.0	83	32.3	2	5	90	0.00	30.155 
03:05	37.0	37.0	37.0	82	32.0	3	6	90	0.00	30.153 
03:10	37.0	37.0	37.0	82	32.0	2	5	112	0.00	30.153 
03:15	37.0	37.0	37.0	81	31.7	2	6	112	0.00	30.152 
03:20	37.0	37.0	37.0	81	31.7	1	4	112	0.00	30.153 
03:25	37.0	37.0	37.0	81	31.7	2	6	90	0.00	30.150 
03:30	37.0	37.0	37.0	81	31.7	2	6	112	0.00	30.152 
03:35	37.0	37.0	37.0	81	31.7	2	7	90	0.00	30.153 
03:40	37.0	37.0	37.0	81	31.7	2	4	112	0.00	30.152 
03:45	37.0	37.0	37.0	81	31.7	2	4	68	0.00	30.151 
03:50	37.2	37.2	37.2	81	31.9	1	5	68	0.00	30.150 
03:55	37.2	37.2	37.2	81	31.9	2	4	90	0.00	30.146 
04:00	37.2	37.2	37.2	81	31.9	2	5	112	0.00	30.144 
04:05	37.2	37.2	37.2	81	31.9	3	6	90	0.00	30.139 
04:10	37.2	37.2	37.2	81	31.9	2	4	112	0.00	30.140 
04:15	37.2	37.2	37.2	81	31.9	2	4	90	0.00	30.141 
04:20	37.0	37.0	37.0	81	31.7	2	4	112	0.00	30.139 
04:25	37.0	37.0	37.0	81	31.7	2	6	112	0.00	30.137 
04:30	37.0	37.0	37.0	81	31.7	2	6	90	0.00	30.137 
04:35	37.0	37.0	37.0	81	31.7	2	4	112	0.00	30.137 
04:40	37.0	37.0	37.0	81	31.7	2	4	112	0.00	30.138 
04:45	37.0	37.0	37.0	81	31.7	2	5	112	0.00	30.137 
04:50	37.2	37.2	37.2	81	31.9	2	6	112	0.00	30.137 
04:55	37.2	37.2	37.2	81	31.9	2	5	112	0.00	30.135 
05:00	37.2	37.2	37.2	81	31.9	1	4	90	0.00	30.137 
05:05	37.2	37.2	37.2	80	31.6	1	4	90	0.00	30.137 
05:10	37.3	37.3	37.3	80	31.7	2	6	90	0.00	30.137 
05:15	37.3	37.3	37.3	80	31.7	2	5	90	0.00	30.135 
05:20	37.3	37.3	37.3	80	31.7	2	5	112	0.00	30.135 
05:25	37.3	37.3	37.3	80	31.7	2	5	112	0.00	30.135 
05:30	37.3	37.3	37.3	80	31.7	1	4	68	0.00	30.134 
05:35	37.3	37.3	37.3	81	32.0	2	4	90	0.00	30.132 
05:40	37.3	37.3	37.3	81	32.0	2	4	90	0.00	30.136 
05:45	37.3	37.3	37.3	81	32.0	2	5	90	0.00	30.134 
05:50	37.3	37.3	37.3	81	32.0	2	4	90	0.00	30.134 
05:55	37.3	37.3	37.3	81	32.0	2	5	112	0.00	30.133 
06:00	37.3	37.3	37.3	81	32.0	2	5	90	0.00	30.133 
06:05	37.3	37.3	37.3	81	32.0	1	6	112	0.00	30.138 
06:10	37.3	37.3	37.3	82	32.3	1	3	112	0.00	30.138 
06:15	37.3	37.3	37.3	82	32.3	1	3	112	0.00	30.134 
06:20	37.3	37.3	37.3	82	32.3	1	3	135	0.00	30.136 
06:25	37.3	37.3	37.3	82	32.3	1	3	135	0.00	30.132 
06:30	37.3	37.3	37.3	82	32.3	1	2	90	0.00	30.127 
06:35	37.3	37.3	37.3	83	32.6	1	4	90	0.00	30.126 
06:40	37.3	37.3	37.3	83	32.6	1	4	90	0.00	30.128 
06:45	37.3	37.3	37.3	84	32.9	1	3	90	0.00	30.123 
06:50	37.3	37.3	37.3	84	32.9	1	3	90	0.00	30.125 
06:55	37.3	37.3	37.3	84	32.9	1	4	90	0.00	30.125 
07:00	37.3	37.3	37.3	84	32.9	1	4	90	0.00	30.125 
07:05	37.3	37.3	37.3	84	32.9	2	5	112	0.00	30.123 
07:10	37.3	37.3	37.3	84	32.9	1	3	68	0.00	30.123 
07:15	37.3	37.3	37.3	84	32.9	1	4	90	0.00	30.123 
07:20	37.5	37.5	37.5	84	33.1	1	5	90	0.00	30.122 
07:25	37.5	37.5	37.5	83	32.8	1	4	112	0.00	30.121 
07:30	37.5	37.5	37.5	83	32.8	1	4	112	0.00	30.121 
07:35	37.5	37.5	37.5	83	32.8	1	3	112	0.00	30.122 
07:40	37.6	37.6	37.6	83	32.9	1	3	112	0.00	30.122 
07:45	37.6	37.6	37.6	83	32.9	1	3	112	0.00	30.122 
07:50	37.6	37.6	37.6	83	32.9	1	3	112	0.00	30.117 
07:55	37.6	37.6	37.6	84	33.2	1	2	112	0.00	30.122 
08:00	37.8	37.8	37.8	84	33.4	1	3	112	0.00	30.123 
08:05	37.8	37.8	37.8	83	33.1	1	3	90	0.00	30.123 
08:10	37.8	37.8	37.8	84	33.4	0	3	90	0.00	30.121 
08:15	37.8	37.8	37.8	84	33.4	1	3	90	0.00	30.122 
08:20	37.8	37.8	37.8	83	33.1	1	3	68	0.00	30.125 
08:25	37.8	37.8	37.8	83	33.1	1	3	68	0.00	30.129 
08:30	37.8	37.8	37.8	83	33.1	1	3	90	0.00	30.130 
08:35	37.8	37.8	37.8	83	33.1	1	4	90	0.00	30.127 
08:40	37.9	37.9	37.9	82	32.9	2	4	112	0.00	30.125 
08:45	37.9	37.9	37.9	82	32.9	1	4	112	0.00	30.125 
08:50	38.0	38.0	38.0	82	33.0	1	4	112	0.00	30.125 
08:55	38.0	38.0	38.0	82	33.0	0	2	90	0.00	30.135 
09:00	38.3	38.3	38.3	82	33.3	1	3	90	0.00	30.128 
09:05	38.5	38.5	38.5	82	33.5	1	4	90	0.00	30.126 
09:10	38.6	38.6	38.6	81	33.3	1	3	90	0.00	30.123 
09:15	38.8	38.8	38.8	81	33.5	1	2	90	0.00	30.122 
09:20	38.9	38.9	38.9	81	33.6	0	2	90	0.00	30.121 
09:25	39.1	39.1	39.1	80	33.5	1	3	90	0.00	30.119 
09:30	39.3	39.3	39.3	80	33.7	1	3	90	0.00	30.120 
09:35	39.8	39.8	39.8	80	34.1	1	3	90	0.00	30.118 
09:40	40.1	40.1	40.1	79	34.1	1	4	90	0.00	30.116 
09:45	40.2	40.2	40.2	78	33.9	1	4	90	0.00	30.118 
09:50	40.5	40.5	40.5	78	34.2	1	3	112	0.00	30.118 
09:55	40.6	40.6	40.6	77	34.0	1	3	112	0.00	30.116 
10:00	40.8	40.8	40.8	77	34.2	1	3	112	0.00	30.112 
10:05	41.1	41.1	41.1	76	34.1	1	4	112	0.00	30.112 
10:10	41.3	41.3	41.3	74	33.6	0	2	112	0.00	30.114 
10:15	41.8	41.8	41.8	74	34.1	1	3	112	0.00	30.111 
10:20	42.1	42.1	42.1	73	34.1	1	3	112	0.00	30.109 
10:25	42.5	42.5	42.5	74	34.8	0	2	112	0.00	30.112 
10:30	42.8	42.8	42.8	73	34.8	0	2	112	0.00	30.109 
10:35	42.9	42.9	42.9	73	34.9	0	2	112	0.00	30.106 
10:40	43.2	43.2	43.2	73	35.1	1	4	68	0.00	30.112 
10:45	43.6	43.6	43.6	72	35.2	1	2	68	0.00	30.109 
10:50	43.9	43.9	43.9	70	34.8	1	4	90	0.00	30.108 
10:55	44.3	44.3	44.3	71	35.5	0	1	90	0.00	30.112 
11:00	44.9	44.9	44.9	69	35.4	0	3	112	0.00	30.104 
11:05	45.4	45.4	45.4	69	35.8	0	3	135	0.00	30.104 
11:10	46.0	46.0	46.0	68	36.0	1	2	135	0.00	30.103 
11:15	46.4	46.4	46.4	67	36.0	0	3	158	0.00	30.100 
11:20	47.0	47.0	47.0	66	36.2	1	3	112	0.00	30.097 
11:25	47.6	47.6	47.6	67	37.2	1	3	112	0.00	30.093 
11:30	47.9	47.9	47.9	66	37.1	1	3	135	0.00	30.083 
11:35	48.2	48.2	48.2	65	37.0	1	3	112	0.00	30.084 
11:40	48.5	48.5	48.5	64	36.9	2	5	90	0.00	30.078 
11:45	48.9	48.9	48.9	66	38.0	2	5	90	0.00	30.064 
11:50	49.2	49.2	49.2	65	37.9	1	5	90	0.00	30.064 
11:55	49.5	49.5	49.5	63	37.4	2	5	135	0.00	30.059 
12:00	49.6	49.6	49.6	64	37.9	1	2	112	0.00	30.054 
12:05	49.9	49.9	49.9	64	38.2	1	3	112	0.00	30.060 
12:10	50.2	50.2	50.2	62	37.7	1	5	90	0.00	30.057 
12:15	50.7	50.7	50.7	63	38.6	0	3	158	0.00	30.047 
12:20	51.1	51.1	51.1	63	38.9	1	3	112	0.00	30.048 
12:25	51.6	51.6	51.6	62	39.0	0	3	112	0.00	30.049 
12:30	51.7	51.7	51.7	62	39.1	1	3	90	0.00	30.046 
12:35	51.9	51.9	51.9	62	39.3	1	3	112	0.00	30.041 
12:40	52.0	52.0	52.0	62	39.4	1	3	112	0.00	30.037 
12:45	52.2	52.2	52.2	62	39.6	1	3	112	0.00	30.032 
12:50	52.5	52.5	52.5	62	39.9	1	3	135	0.00	30.030 
12:55	52.6	52.6	52.6	62	40.0	0	2	135	0.00	30.027 
13:00	52.8	52.8	52.8	61	39.7	1	3	90	0.00	30.025 
13:05	53.1	53.1	53.1	61	40.0	1	3	90	0.00	30.019 
13:10	53.3	53.3	53.3	62	40.6	1	4	90	0.00	30.019 
13:15	53.5	53.5	53.5	62	40.8	0	2	90	0.00	30.021 
13:20	53.6	53.6	53.6	61	40.5	1	3	90	0.00	30.027 
13:25	53.8	53.8	53.8	60	40.2	0	2	112	0.00	30.028 
13:30	53.8	53.8	53.8	61	40.7	0	1	112	0.00	30.029 
13:35	53.8	53.8	53.8	61	40.7	0	2	112	0.00	30.026 
13:40	53.8	53.8	53.8	61	40.7	0	1	112	0.00	30.025 
13:45	53.9	53.9	53.9	61	40.8	0	1	112	0.00	30.015 
13:50	53.9	53.9	53.9	61	40.8	0	1	112	0.00	30.014 
13:55	54.1	54.1	54.1	62	41.4	0	3	112	0.00	30.015 
14:00	54.2	54.2	54.2	63	41.9	0	1	112	0.00	30.020 
14:05	54.4	54.4	54.4	62	41.7	0	2	112	0.00	30.017 
14:10	54.7	54.7	54.7	62	41.9	0	2	112	0.00	30.014 
14:15	54.7	54.7	54.7	64	42.8	0	2	112	0.00	30.011 
14:20	54.8	54.8	54.8	65	43.3	0	3	112	0.00	30.007 
14:25	54.8	54.8	54.8	66	43.7	0	2	135	0.00	30.002 
14:30	54.7	54.7	54.7	67	44.0	0	2	135	0.00	29.996 
14:35	54.5	54.5	54.5	69	44.5	0	2	135	0.00	29.998 
14:40	54.5	54.5	54.5	69	44.5	0	1	135	0.00	29.997 
14:45	54.5	54.5	54.5	69	44.5	0	1	135	0.00	29.996 
14:50	54.4	54.4	54.4	70	44.8	0	1	135	0.00	29.997 
14:55	54.5	54.5	54.5	70	44.9	0	2	135	0.00	29.998 
15:00	54.5	54.5	54.5	70	44.9	0	2	90	0.00	29.996 
15:05	54.5	54.5	54.5	70	44.9	0	1	90	0.01	29.995 
15:10	54.5	54.5	54.5	70	44.9	0	2	90	0.00	29.996 
15:15	54.5	54.5	54.5	70	44.9	0	1	90	0.00	29.996 
15:20	54.5	54.5	54.5	71	45.3	0	1	90	0.00	29.995 
15:25	54.5	54.5	54.5	71	45.3	0	1	90	0.00	29.995 
15:30	54.4	54.4	54.4	71	45.2	0	2	90	0.00	29.996 
15:35	54.4	54.4	54.4	72	45.6	0	3	90	0.00	29.993 
15:40	54.2	54.2	54.2	72	45.4	0	1	135	0.00	29.991 
15:45	53.9	53.9	53.9	73	45.4	0	2	135	0.00	29.990 
15:50	53.8	53.8	53.8	74	45.7	0	2	135	0.00	29.993 
15:55	53.5	53.5	53.5	75	45.8	0	1	135	0.00	29.993 
16:00	53.3	53.3	53.3	76	45.9	0	1	135	0.00	29.994 
16:05	53.2	53.2	53.2	76	45.8	0	1	135	0.00	29.995 
16:10	53.1	53.1	53.1	78	46.4	0	2	135	0.01	29.995 
16:15	52.8	52.8	52.8	79	46.5	0	2	135	0.00	29.991 
16:20	52.6	52.6	52.6	80	46.6	0	1	135	0.00	29.991 
16:25	52.3	52.3	52.3	81	46.6	0	1	135	0.01	29.989 
16:30	52.0	52.0	52.0	83	47.0	0	2	135	0.00	29.989 
16:35	51.7	51.7	51.7	83	46.7	0	1	135	0.00	29.986 
16:40	51.6	51.6	51.6	84	46.9	0	1	135	0.01	29.985 
16:45	51.3	51.3	51.3	84	46.6	0	1	135	0.00	29.983 
16:50	51.0	51.0	51.0	84	46.3	0	2	135	0.01	29.983 
16:55	50.7	50.7	50.7	85	46.4	0	2	112	0.00	29.983 
17:00	50.4	50.4	50.4	86	46.4	0	1	135	0.01	29.984 
17:05	50.1	50.1	50.1	86	46.1	0	2	135	0.00	29.983 
17:10	49.9	49.9	49.9	87	46.2	0	1	135	0.00	29.981 
17:15	49.8	49.8	49.8	87	46.1	0	2	135	0.00	29.982 
17:20	49.6	49.6	49.6	88	46.2	0	2	135	0.01	29.981 
17:25	49.5	49.5	49.5	88	46.1	0	2	112	0.00	29.977 
17:30	49.5	49.5	49.5	89	46.4	0	1	112	0.00	29.978 
17:35	49.4	49.4	49.4	89	46.3	0	2	112	0.01	29.975 
17:40	49.2	49.2	49.2	90	46.4	0	1	112	0.00	29.972 
17:45	49.2	49.2	49.2	90	46.4	0	2	112	0.00	29.971 
17:50	49.1	49.1	49.1	90	46.3	0	3	90	0.01	29.972 
17:55	49.1	49.1	49.1	91	46.6	0	2	112	0.00	29.972 
18:00	49.1	49.1	49.1	91	46.6	0	2	112	0.00	29.971 
18:05	49.1	49.1	49.1	91	46.6	0	2	112	0.01	29.968 
18:10	49.1	49.1	49.1	92	46.9	0	2	112	0.00	29.967 
18:15	49.2	49.2	49.2	92	47.0	0	1	112	0.00	29.967 
18:20	49.2	49.2	49.2	92	47.0	0	2	112	0.00	29.969 
18:25	49.2	49.2	49.2	92	47.0	0	2	202	0.00	29.970 
18:30	49.2	49.2	49.2	92	47.0	0	2	90	0.00	29.969 
18:35	49.2	49.2	49.2	92	47.0	1	3	90	0.00	29.967 
18:40	49.2	49.2	49.2	92	47.0	1	2	112	0.00	29.968 
18:45	49.2	49.2	49.2	92	47.0	0	2	112	0.00	29.965 
18:50	49.2	49.2	49.2	92	47.0	0	2	112	0.00	29.964 
18:55	49.1	49.1	49.1	92	46.9	1	2	112	0.00	29.965 
19:00	49.1	49.1	49.1	92	46.9	1	4	68	0.01	29.966 
19:05	49.1	49.1	49.1	92	46.9	1	4	90	0.00	29.964 
19:10	49.1	49.1	49.1	92	46.9	1	3	112	0.00	29.962 
19:15	49.1	49.1	49.1	92	46.9	1	4	90	0.00	29.958 
19:20	49.1	49.1	49.1	92	46.9	1	5	112	0.00	29.956 
19:25	49.1	49.1	49.1	92	46.9	1	3	90	0.01	29.954 
19:30	48.9	48.9	48.9	92	46.7	1	5	135	0.00	29.952 
19:35	48.9	48.9	48.9	92	46.7	1	4	112	0.00	29.950 
19:40	48.8	48.8	48.8	92	46.6	1	4	112	0.00	29.949 
19:45	48.8	48.8	48.8	92	46.6	1	6	158	0.00	29.945 
19:50	48.8	48.8	48.8	92	46.6	1	4	135	0.00	29.942 
19:55	48.6	48.6	48.6	92	46.4	1	4	135	0.00	29.939 
20:00	48.6	48.6	48.6	92	46.4	1	5	90	0.01	29.938 
20:05	48.5	48.5	48.5	92	46.3	1	4	90	0.00	29.938 
20:10	48.5	48.5	48.5	92	46.3	2	6	135	0.00	29.937 
20:15	48.5	48.5	48.5	92	46.3	2	5	112	0.01	29.934 
20:20	48.5	48.5	48.5	92	46.3	2	5	90	0.00	29.931 
20:25	48.5	48.5	48.5	93	46.6	1	3	112	0.01	29.930 
20:30	48.3	48.3	48.3	93	46.4	2	5	90	0.01	29.928 
20:35	48.3	48.3	48.3	94	46.7	2	5	90	0.01	29.924 
20:40	48.3	48.3	48.3	93	46.4	2	4	112	0.00	29.922 
20:45	48.3	48.3	48.3	93	46.4	1	5	90	0.01	29.920 
20:50	48.2	48.2	48.2	93	46.3	1	4	112	0.01	29.920 
20:55	48.2	48.2	48.2	93	46.3	2	5	112	0.00	29.921 
21:00	48.2	48.2	48.2	93	46.3	2	4	112	0.01	29.919 
21:05	48.2	48.2	48.2	94	46.6	2	7	112	0.00	29.915 
21:10	48.2	48.2	48.2	94	46.6	1	4	90	0.01	29.905 
21:15	48.2	48.2	48.2	94	46.6	1	4	90	0.01	29.909 
21:20	48.0	48.0	48.0	94	46.4	1	3	68	0.01	29.913 
21:25	48.0	48.0	48.0	94	46.4	1	4	158	0.01	29.906 
21:30	48.0	48.0	48.0	94	46.4	1	3	112	0.01	29.905 
21:35	48.0	48.0	48.0	94	46.4	1	3	112	0.00	29.904 
21:40	48.0	48.0	48.0	94	46.4	1	5	135	0.01	29.905 
21:45	47.9	47.9	47.9	94	46.3	1	5	112	0.01	29.904 
21:50	47.9	47.9	47.9	94	46.3	1	3	135	0.01	29.902 
21:55	47.9	47.9	47.9	94	46.3	1	4	90	0.00	29.903 
22:00	47.9	47.9	47.9	95	46.5	1	3	90	0.01	29.902 
22:05	47.9	47.9	47.9	95	46.5	1	4	90	0.01	29.899 
22:10	47.7	47.7	47.7	95	46.3	1	4	112	0.01	29.895 
22:15	47.7	47.7	47.7	95	46.3	1	4	112	0.01	29.893 
22:20	47.7	47.7	47.7	95	46.3	1	3	90	0.00	29.891 
22:25	47.6	47.6	47.6	95	46.2	1	4	112	0.01	29.889 
22:30	47.6	47.6	47.6	95	46.2	1	3	135	0.00	29.887 
22:35	47.6	47.6	47.6	95	46.2	1	5	112	0.01	29.886 
22:40	47.6	47.6	47.6	95	46.2	1	3	135	0.01	29.884 
22:45	47.6	47.6	47.6	95	46.2	1	3	112	0.01	29.881 
22:50	47.6	47.6	47.6	95	46.2	1	3	68	0.00	29.878 
22:55	47.6	47.6	47.6	95	46.2	1	3	90	0.01	29.874 
23:00	47.6	47.6	47.6	95	46.2	1	5	112	0.01	29.870 
23:05	47.6	47.6	47.6	95	46.2	1	5	135	0.00	29.863 
23:10	47.6	47.6	47.6	95	46.2	1	2	112	0.01	29.861 
23:15	47.6	47.6	47.6	95	46.2	0	2	112	0.01	29.856 
23:20	47.6	47.6	47.6	95	46.2	1	4	90	0.01	29.852 
23:25	47.7	47.7	47.7	95	46.3	0	3	158	0.01	29.849 
23:30	47.7	47.7	47.7	95	46.3	1	4	45	0.01	29.848 
23:35	47.7	47.7	47.7	95	46.3	1	2	135	0.00	29.846 
23:40	47.9	47.9	47.9	95	46.5	1	4	135	0.01	29.841 
23:45	47.9	47.9	47.9	95	46.5	1	4	135	0.01	29.838 
23:50	48.0	48.0	48.0	96	46.9	1	6	90	0.01	29.836 
23:55	48.0	48.0	48.0	95	46.6	1	2	90	0.01	29.834 

CoCoRaHS
IN-AL-39
A2 Web Hosting
Creative Commons License
GoDaddy
Look for:

loaded 2017-10-16 18:30:35 • last modified 2010-11-18 10:43:29
Privacy PolicyDisclaimer
• wx.awcolley.com is powered by PmWiki v.2002016 •
• all content (unless otherwise noted) © 2017 A W Colley